EETN

Tallinn Airport

Tallinn, Estonia
METAR EETN 161020Z 17007KT 2700 BR OVC002 01/00 Q0998 R08/290195 TEMPO 1200
Observed Flight Rules
Dec-16 @ 10:20 UTC (29 minutes ago) Instrument Flight Rules
Wind Visibility Clouds Conditions
170° at 7 knots 2,704 meters
  • Overcast at 200' AGL
  • Mist
Temperatures Readings
Current 1°C / 34°F
Dewpoint 0°C / 32°F
Humidity 93%
Altimeter 29.47" Hg
Pressure 998 hPa
Elevation 40
METAR EETN 161020Z 17007KT 2700 BR OVC002 01/00 Q0998 R08/290195 TEMPO 1200
Observed Flight Rules
Dec-16 @ 10:20 UTC
(29 minutes ago)
LIFR
Wind Visibility
170° at 7 knots 2,704 meters
Clouds
  • Overcast at 200' AGL
Conditions
  • Mist
Temperature Dewpoint
1°C / 34°F 0°C / 32°F
Humidity Altimeter Pressure
93% 29.47" Hg 998 hPa